sensor_id;sensor_type;location;lat;lon;timestamp;P1;durP1;ratioP1;P2;durP2;ratioP2
72261;SDS011;60173;52.112;8.648;2023-05-29T00:01:50;22.67;;;5.28;;
72261;SDS011;60173;52.112;8.648;2023-05-29T00:04:16;20.90;;;5.10;;
72261;SDS011;60173;52.112;8.648;2023-05-29T00:06:43;20.48;;;4.93;;
72261;SDS011;60173;52.112;8.648;2023-05-29T00:09:09;20.52;;;4.90;;
72261;SDS011;60173;52.112;8.648;2023-05-29T00:11:38;23.92;;;4.95;;
72261;SDS011;60173;52.112;8.648;2023-05-29T00:14:05;22.60;;;4.75;;
72261;SDS011;60173;52.112;8.648;2023-05-29T00:16:31;22.02;;;4.95;;
72261;SDS011;60173;52.112;8.648;2023-05-29T00:19:00;20.20;;;5.63;;
72261;SDS011;60173;52.112;8.648;2023-05-29T00:21:26;23.13;;;5.40;;
72261;SDS011;60173;52.112;8.648;2023-05-29T00:23:53;22.15;;;4.80;;
72261;SDS011;60173;52.112;8.648;2023-05-29T00:26:19;22.42;;;5.47;;
72261;SDS011;60173;52.112;8.648;2023-05-29T00:28:47;25.30;;;4.85;;
72261;SDS011;60173;52.112;8.648;2023-05-29T00:31:17;20.75;;;5.55;;
72261;SDS011;60173;52.112;8.648;2023-05-29T00:33:43;24.13;;;5.50;;
72261;SDS011;60173;52.112;8.648;2023-05-29T00:36:09;24.70;;;5.10;;
72261;SDS011;60173;52.112;8.648;2023-05-29T00:38:36;22.35;;;5.28;;
72261;SDS011;60173;52.112;8.648;2023-05-29T00:41:05;22.77;;;5.82;;
72261;SDS011;60173;52.112;8.648;2023-05-29T00:43:32;26.48;;;5.28;;
72261;SDS011;60173;52.112;8.648;2023-05-29T00:45:58;28.77;;;4.72;;
72261;SDS011;60173;52.112;8.648;2023-05-29T00:48:25;19.00;;;4.80;;
72261;SDS011;60173;52.112;8.648;2023-05-29T00:50:52;24.35;;;4.90;;
72261;SDS011;60173;52.112;8.648;2023-05-29T00:53:19;27.95;;;5.43;;
72261;SDS011;60173;52.112;8.648;2023-05-29T00:55:46;23.17;;;5.03;;
72261;SDS011;60173;52.112;8.648;2023-05-29T00:58:13;19.83;;;4.80;;
72261;SDS011;60173;52.112;8.648;2023-05-29T01:00:39;27.83;;;5.78;;
72261;SDS011;60173;52.112;8.648;2023-05-29T01:03:05;20.92;;;4.63;;
72261;SDS011;60173;52.112;8.648;2023-05-29T01:05:33;32.00;;;4.97;;
72261;SDS011;60173;52.112;8.648;2023-05-29T01:08:01;29.35;;;5.03;;
72261;SDS011;60173;52.112;8.648;2023-05-29T01:10:28;20.02;;;4.53;;
72261;SDS011;60173;52.112;8.648;2023-05-29T01:13:01;27.75;;;5.85;;
72261;SDS011;60173;52.112;8.648;2023-05-29T01:29:12;21.20;;;4.38;;
72261;SDS011;60173;52.112;8.648;2023-05-29T01:31:41;26.42;;;5.15;;
72261;SDS011;60173;52.112;8.648;2023-05-29T01:34:09;27.23;;;5.13;;
72261;SDS011;60173;52.112;8.648;2023-05-29T01:36:36;19.13;;;4.93;;
72261;SDS011;60173;52.112;8.648;2023-05-29T01:39:02;23.58;;;5.07;;
72261;SDS011;60173;52.112;8.648;2023-05-29T01:41:29;22.38;;;4.68;;
72261;SDS011;60173;52.112;8.648;2023-05-29T01:43:57;30.33;;;5.45;;
72261;SDS011;60173;52.112;8.648;2023-05-29T01:46:25;18.08;;;4.57;;
72261;SDS011;60173;52.112;8.648;2023-05-29T01:48:52;15.77;;;4.13;;
72261;SDS011;60173;52.112;8.648;2023-05-29T01:51:19;22.50;;;4.50;;
72261;SDS011;60173;52.112;8.648;2023-05-29T01:53:46;28.95;;;5.32;;
72261;SDS011;60173;52.112;8.648;2023-05-29T01:56:12;19.23;;;4.80;;
72261;SDS011;60173;52.112;8.648;2023-05-29T01:58:40;17.70;;;4.30;;
72261;SDS011;60173;52.112;8.648;2023-05-29T02:01:07;28.17;;;5.22;;
72261;SDS011;60173;52.112;8.648;2023-05-29T02:03:34;21.67;;;4.38;;
72261;SDS011;60173;52.112;8.648;2023-05-29T02:06:00;20.58;;;5.20;;
72261;SDS011;60173;52.112;8.648;2023-05-29T02:08:27;32.65;;;5.13;;
72261;SDS011;60173;52.112;8.648;2023-05-29T02:10:54;22.15;;;4.93;;
72261;SDS011;60173;52.112;8.648;2023-05-29T02:13:20;16.85;;;4.35;;
72261;SDS011;60173;52.112;8.648;2023-05-29T02:15:47;25.02;;;5.03;;
72261;SDS011;60173;52.112;8.648;2023-05-29T02:18:14;25.13;;;4.53;;
72261;SDS011;60173;52.112;8.648;2023-05-29T02:20:41;22.67;;;4.50;;
72261;SDS011;60173;52.112;8.648;2023-05-29T02:23:08;21.55;;;4.80;;
72261;SDS011;60173;52.112;8.648;2023-05-29T02:25:35;18.55;;;4.80;;
72261;SDS011;60173;52.112;8.648;2023-05-29T02:28:02;20.60;;;4.20;;
72261;SDS011;60173;52.112;8.648;2023-05-29T02:30:29;21.25;;;4.53;;
72261;SDS011;60173;52.112;8.648;2023-05-29T02:32:56;25.33;;;4.55;;
72261;SDS011;60173;52.112;8.648;2023-05-29T02:35:23;25.42;;;4.25;;
72261;SDS011;60173;52.112;8.648;2023-05-29T02:37:49;25.95;;;4.90;;
72261;SDS011;60173;52.112;8.648;2023-05-29T02:40:17;23.08;;;4.68;;
72261;SDS011;60173;52.112;8.648;2023-05-29T02:42:44;22.85;;;4.47;;
72261;SDS011;60173;52.112;8.648;2023-05-29T02:45:11;27.08;;;5.10;;
72261;SDS011;60173;52.112;8.648;2023-05-29T02:47:37;19.77;;;4.28;;
72261;SDS011;60173;52.112;8.648;2023-05-29T02:50:04;22.85;;;5.60;;
72261;SDS011;60173;52.112;8.648;2023-05-29T02:52:31;23.10;;;5.22;;
72261;SDS011;60173;52.112;8.648;2023-05-29T02:54:58;25.75;;;4.57;;
72261;SDS011;60173;52.112;8.648;2023-05-29T02:57:24;24.50;;;5.28;;
72261;SDS011;60173;52.112;8.648;2023-05-29T02:59:51;22.95;;;4.78;;
72261;SDS011;60173;52.112;8.648;2023-05-29T03:02:18;25.48;;;5.13;;
72261;SDS011;60173;52.112;8.648;2023-05-29T03:04:44;29.85;;;5.05;;
72261;SDS011;60173;52.112;8.648;2023-05-29T03:07:11;28.02;;;4.68;;
72261;SDS011;60173;52.112;8.648;2023-05-29T03:09:37;19.90;;;4.95;;
72261;SDS011;60173;52.112;8.648;2023-05-29T03:12:04;28.27;;;5.32;;
72261;SDS011;60173;52.112;8.648;2023-05-29T03:14:30;23.35;;;4.22;;
72261;SDS011;60173;52.112;8.648;2023-05-29T03:16:57;21.23;;;4.45;;
72261;SDS011;60173;52.112;8.648;2023-05-29T03:19:23;24.33;;;4.40;;
72261;SDS011;60173;52.112;8.648;2023-05-29T03:21:49;23.50;;;4.32;;
72261;SDS011;60173;52.112;8.648;2023-05-29T03:24:16;31.17;;;5.95;;
72261;SDS011;60173;52.112;8.648;2023-05-29T03:26:42;30.75;;;4.90;;
72261;SDS011;60173;52.112;8.648;2023-05-29T03:29:09;25.95;;;4.53;;
72261;SDS011;60173;52.112;8.648;2023-05-29T03:31:35;31.83;;;5.70;;
72261;SDS011;60173;52.112;8.648;2023-05-29T03:34:01;23.35;;;4.28;;
72261;SDS011;60173;52.112;8.648;2023-05-29T03:36:28;24.35;;;4.75;;
72261;SDS011;60173;52.112;8.648;2023-05-29T03:38:54;28.05;;;5.15;;
72261;SDS011;60173;52.112;8.648;2023-05-29T03:41:20;20.48;;;4.18;;
72261;SDS011;60173;52.112;8.648;2023-05-29T03:43:47;17.90;;;4.13;;
72261;SDS011;60173;52.112;8.648;2023-05-29T03:46:13;24.95;;;4.38;;
72261;SDS011;60173;52.112;8.648;2023-05-29T03:48:40;23.42;;;4.35;;
72261;SDS011;60173;52.112;8.648;2023-05-29T03:51:06;27.10;;;4.55;;
72261;SDS011;60173;52.112;8.648;2023-05-29T03:53:32;19.10;;;4.38;;
72261;SDS011;60173;52.112;8.648;2023-05-29T03:55:59;17.42;;;4.10;;
72261;SDS011;60173;52.112;8.648;2023-05-29T03:58:25;29.80;;;4.75;;
72261;SDS011;60173;52.112;8.648;2023-05-29T04:00:51;26.20;;;3.90;;
72261;SDS011;60173;52.112;8.648;2023-05-29T04:03:18;24.15;;;4.00;;
72261;SDS011;60173;52.112;8.648;2023-05-29T04:05:44;19.65;;;3.80;;
72261;SDS011;60173;52.112;8.648;2023-05-29T04:08:11;23.38;;;3.97;;
72261;SDS011;60173;52.112;8.648;2023-05-29T04:10:41;21.65;;;4.15;;
72261;SDS011;60173;52.112;8.648;2023-05-29T04:13:07;25.95;;;4.40;;
72261;SDS011;60173;52.112;8.648;2023-05-29T04:15:34;26.58;;;4.63;;
72261;SDS011;60173;52.112;8.648;2023-05-29T04:18:00;21.17;;;3.72;;
72261;SDS011;60173;52.112;8.648;2023-05-29T04:20:27;23.25;;;4.68;;
72261;SDS011;60173;52.112;8.648;2023-05-29T04:22:53;22.73;;;4.13;;
72261;SDS011;60173;52.112;8.648;2023-05-29T04:25:20;27.42;;;4.30;;
72261;SDS011;60173;52.112;8.648;2023-05-29T04:27:46;22.15;;;4.18;;
72261;SDS011;60173;52.112;8.648;2023-05-29T04:30:12;19.67;;;3.80;;
72261;SDS011;60173;52.112;8.648;2023-05-29T04:32:39;24.27;;;3.90;;
72261;SDS011;60173;52.112;8.648;2023-05-29T04:35:05;20.50;;;3.50;;
72261;SDS011;60173;52.112;8.648;2023-05-29T04:37:32;21.17;;;4.13;;
72261;SDS011;60173;52.112;8.648;2023-05-29T04:39:59;21.85;;;4.07;;
72261;SDS011;60173;52.112;8.648;2023-05-29T04:42:25;20.33;;;3.45;;
72261;SDS011;60173;52.112;8.648;2023-05-29T04:44:52;20.65;;;4.43;;
72261;SDS011;60173;52.112;8.648;2023-05-29T04:47:19;20.27;;;3.50;;
72261;SDS011;60173;52.112;8.648;2023-05-29T04:49:45;20.23;;;3.90;;
72261;SDS011;60173;52.112;8.648;2023-05-29T04:52:12;27.17;;;3.88;;
72261;SDS011;60173;52.112;8.648;2023-05-29T04:54:38;16.75;;;3.50;;
72261;SDS011;60173;52.112;8.648;2023-05-29T04:57:04;24.10;;;4.05;;
72261;SDS011;60173;52.112;8.648;2023-05-29T04:59:31;21.30;;;3.95;;
72261;SDS011;60173;52.112;8.648;2023-05-29T05:01:57;28.27;;;4.35;;
72261;SDS011;60173;52.112;8.648;2023-05-29T05:04:23;20.30;;;3.47;;
72261;SDS011;60173;52.112;8.648;2023-05-29T05:06:50;22.23;;;3.40;;
72261;SDS011;60173;52.112;8.648;2023-05-29T05:09:16;15.48;;;3.97;;
72261;SDS011;60173;52.112;8.648;2023-05-29T05:11:43;19.60;;;3.85;;
72261;SDS011;60173;52.112;8.648;2023-05-29T05:14:09;28.98;;;4.32;;
72261;SDS011;60173;52.112;8.648;2023-05-29T05:16:36;22.17;;;4.40;;
72261;SDS011;60173;52.112;8.648;2023-05-29T05:19:02;25.30;;;4.20;;
72261;SDS011;60173;52.112;8.648;2023-05-29T05:21:28;29.73;;;4.80;;
72261;SDS011;60173;52.112;8.648;2023-05-29T05:23:55;22.85;;;4.18;;
72261;SDS011;60173;52.112;8.648;2023-05-29T05:26:24;21.13;;;3.85;;
72261;SDS011;60173;52.112;8.648;2023-05-29T05:28:50;27.20;;;4.18;;
72261;SDS011;60173;52.112;8.648;2023-05-29T05:31:17;19.75;;;3.65;;
72261;SDS011;60173;52.112;8.648;2023-05-29T05:33:44;25.08;;;4.32;;
72261;SDS011;60173;52.112;8.648;2023-05-29T05:36:10;21.85;;;3.88;;
72261;SDS011;60173;52.112;8.648;2023-05-29T05:38:37;16.98;;;4.05;;
72261;SDS011;60173;52.112;8.648;2023-05-29T05:41:03;21.73;;;3.72;;
72261;SDS011;60173;52.112;8.648;2023-05-29T05:43:30;22.23;;;3.58;;
72261;SDS011;60173;52.112;8.648;2023-05-29T05:45:56;22.42;;;3.47;;
72261;SDS011;60173;52.112;8.648;2023-05-29T05:48:22;18.10;;;3.47;;
72261;SDS011;60173;52.112;8.648;2023-05-29T05:50:49;24.90;;;5.75;;
72261;SDS011;60173;52.112;8.648;2023-05-29T05:53:15;23.50;;;3.90;;
72261;SDS011;60173;52.112;8.648;2023-05-29T05:55:42;25.50;;;4.10;;
72261;SDS011;60173;52.112;8.648;2023-05-29T05:58:09;27.88;;;4.55;;
72261;SDS011;60173;52.112;8.648;2023-05-29T06:00:35;19.90;;;3.67;;
72261;SDS011;60173;52.112;8.648;2023-05-29T06:03:01;21.10;;;3.85;;
72261;SDS011;60173;52.112;8.648;2023-05-29T06:05:28;23.52;;;3.83;;
72261;SDS011;60173;52.112;8.648;2023-05-29T06:07:55;19.77;;;3.72;;
72261;SDS011;60173;52.112;8.648;2023-05-29T06:10:21;20.85;;;4.00;;
72261;SDS011;60173;52.112;8.648;2023-05-29T06:12:48;20.08;;;4.22;;
72261;SDS011;60173;52.112;8.648;2023-05-29T06:15:14;20.10;;;4.38;;
72261;SDS011;60173;52.112;8.648;2023-05-29T06:17:41;19.20;;;3.78;;
72261;SDS011;60173;52.112;8.648;2023-05-29T06:20:07;22.65;;;3.67;;
72261;SDS011;60173;52.112;8.648;2023-05-29T06:22:34;18.95;;;3.58;;
72261;SDS011;60173;52.112;8.648;2023-05-29T06:25:00;16.08;;;3.50;;
72261;SDS011;60173;52.112;8.648;2023-05-29T06:27:30;22.17;;;4.18;;
72261;SDS011;60173;52.112;8.648;2023-05-29T06:29:57;17.88;;;4.43;;
72261;SDS011;60173;52.112;8.648;2023-05-29T06:32:23;20.15;;;3.90;;
72261;SDS011;60173;52.112;8.648;2023-05-29T06:34:49;15.38;;;3.65;;
72261;SDS011;60173;52.112;8.648;2023-05-29T06:37:16;20.02;;;3.53;;
72261;SDS011;60173;52.112;8.648;2023-05-29T06:39:45;20.67;;;4.53;;
72261;SDS011;60173;52.112;8.648;2023-05-29T06:42:12;18.00;;;3.72;;
72261;SDS011;60173;52.112;8.648;2023-05-29T06:44:38;21.05;;;3.72;;
72261;SDS011;60173;52.112;8.648;2023-05-29T06:47:05;23.40;;;4.55;;
72261;SDS011;60173;52.112;8.648;2023-05-29T06:49:32;15.35;;;3.50;;
72261;SDS011;60173;52.112;8.648;2023-05-29T06:51:58;17.20;;;3.47;;
72261;SDS011;60173;52.112;8.648;2023-05-29T06:54:24;16.88;;;3.50;;
72261;SDS011;60173;52.112;8.648;2023-05-29T06:56:51;21.63;;;3.88;;
72261;SDS011;60173;52.112;8.648;2023-05-29T06:59:35;19.45;;;3.83;;
72261;SDS011;60173;52.112;8.648;2023-05-29T07:02:01;17.65;;;3.83;;
72261;SDS011;60173;52.112;8.648;2023-05-29T07:04:28;19.92;;;3.75;;
72261;SDS011;60173;52.112;8.648;2023-05-29T07:06:54;17.20;;;3.10;;
72261;SDS011;60173;52.112;8.648;2023-05-29T07:09:20;19.55;;;3.53;;
72261;SDS011;60173;52.112;8.648;2023-05-29T07:11:47;19.30;;;3.88;;
72261;SDS011;60173;52.112;8.648;2023-05-29T07:14:13;17.90;;;3.13;;
72261;SDS011;60173;52.112;8.648;2023-05-29T07:16:40;15.57;;;3.33;;
72261;SDS011;60173;52.112;8.648;2023-05-29T07:19:06;15.80;;;3.22;;
72261;SDS011;60173;52.112;8.648;2023-05-29T07:21:44;25.05;;;3.83;;
72261;SDS011;60173;52.112;8.648;2023-05-29T07:24:11;18.70;;;2.97;;
72261;SDS011;60173;52.112;8.648;2023-05-29T07:26:37;22.90;;;3.70;;
72261;SDS011;60173;52.112;8.648;2023-05-29T07:29:04;19.98;;;4.00;;
72261;SDS011;60173;52.112;8.648;2023-05-29T07:31:30;19.58;;;3.50;;
72261;SDS011;60173;52.112;8.648;2023-05-29T07:33:57;11.80;;;2.83;;
72261;SDS011;60173;52.112;8.648;2023-05-29T07:36:23;17.92;;;3.70;;
72261;SDS011;60173;52.112;8.648;2023-05-29T07:38:55;16.20;;;3.35;;
72261;SDS011;60173;52.112;8.648;2023-05-29T07:41:21;13.18;;;3.08;;
72261;SDS011;60173;52.112;8.648;2023-05-29T07:43:48;19.80;;;3.63;;
72261;SDS011;60173;52.112;8.648;2023-05-29T07:46:14;15.70;;;3.00;;
72261;SDS011;60173;52.112;8.648;2023-05-29T07:48:40;13.93;;;3.78;;
72261;SDS011;60173;52.112;8.648;2023-05-29T07:51:07;15.05;;;3.92;;
72261;SDS011;60173;52.112;8.648;2023-05-29T07:53:33;17.23;;;3.85;;
72261;SDS011;60173;52.112;8.648;2023-05-29T07:56:00;12.38;;;3.08;;
72261;SDS011;60173;52.112;8.648;2023-05-29T07:58:26;18.50;;;3.92;;
72261;SDS011;60173;52.112;8.648;2023-05-29T08:00:52;17.10;;;3.40;;
72261;SDS011;60173;52.112;8.648;2023-05-29T08:03:19;19.88;;;3.33;;
72261;SDS011;60173;52.112;8.648;2023-05-29T08:05:46;18.35;;;3.85;;
72261;SDS011;60173;52.112;8.648;2023-05-29T08:08:12;21.60;;;3.50;;
72261;SDS011;60173;52.112;8.648;2023-05-29T08:10:39;13.25;;;3.22;;
72261;SDS011;60173;52.112;8.648;2023-05-29T08:13:05;19.23;;;3.20;;
72261;SDS011;60173;52.112;8.648;2023-05-29T08:15:31;15.45;;;3.63;;
72261;SDS011;60173;52.112;8.648;2023-05-29T08:18:01;13.57;;;3.42;;
72261;SDS011;60173;52.112;8.648;2023-05-29T08:20:31;16.00;;;3.42;;
72261;SDS011;60173;52.112;8.648;2023-05-29T08:22:57;17.80;;;3.55;;
72261;SDS011;60173;52.112;8.648;2023-05-29T08:25:24;17.38;;;3.45;;
72261;SDS011;60173;52.112;8.648;2023-05-29T08:27:50;15.88;;;3.67;;
72261;SDS011;60173;52.112;8.648;2023-05-29T08:30:16;15.38;;;2.97;;
72261;SDS011;60173;52.112;8.648;2023-05-29T08:32:43;14.98;;;3.60;;
72261;SDS011;60173;52.112;8.648;2023-05-29T08:35:09;15.20;;;4.00;;
72261;SDS011;60173;52.112;8.648;2023-05-29T08:37:36;15.57;;;3.50;;
72261;SDS011;60173;52.112;8.648;2023-05-29T08:40:02;20.42;;;3.78;;
72261;SDS011;60173;52.112;8.648;2023-05-29T08:42:29;24.33;;;3.55;;
72261;SDS011;60173;52.112;8.648;2023-05-29T08:45:00;19.33;;;3.92;;
72261;SDS011;60173;52.112;8.648;2023-05-29T08:47:29;14.38;;;3.47;;
72261;SDS011;60173;52.112;8.648;2023-05-29T08:49:59;19.45;;;4.05;;
72261;SDS011;60173;52.112;8.648;2023-05-29T08:52:27;15.05;;;3.03;;
72261;SDS011;60173;52.112;8.648;2023-05-29T08:54:55;25.02;;;4.50;;
72261;SDS011;60173;52.112;8.648;2023-05-29T08:57:22;19.58;;;3.60;;
72261;SDS011;60173;52.112;8.648;2023-05-29T08:59:50;16.77;;;3.85;;
72261;SDS011;60173;52.112;8.648;2023-05-29T09:02:17;15.30;;;4.40;;
72261;SDS011;60173;52.112;8.648;2023-05-29T09:04:44;22.65;;;3.50;;
72261;SDS011;60173;52.112;8.648;2023-05-29T09:07:11;16.33;;;3.20;;
72261;SDS011;60173;52.112;8.648;2023-05-29T09:09:38;21.75;;;3.60;;
72261;SDS011;60173;52.112;8.648;2023-05-29T09:12:04;19.38;;;4.78;;
72261;SDS011;60173;52.112;8.648;2023-05-29T09:14:32;17.40;;;3.95;;
72261;SDS011;60173;52.112;8.648;2023-05-29T09:17:02;19.80;;;3.92;;
72261;SDS011;60173;52.112;8.648;2023-05-29T09:19:30;15.27;;;2.92;;
72261;SDS011;60173;52.112;8.648;2023-05-29T09:22:03;19.55;;;4.00;;
72261;SDS011;60173;52.112;8.648;2023-05-29T09:24:32;15.73;;;3.28;;
72261;SDS011;60173;52.112;8.648;2023-05-29T09:26:59;18.20;;;4.03;;
72261;SDS011;60173;52.112;8.648;2023-05-29T09:29:27;15.63;;;4.10;;
72261;SDS011;60173;52.112;8.648;2023-05-29T09:31:56;33.55;;;4.97;;
72261;SDS011;60173;52.112;8.648;2023-05-29T09:34:24;25.17;;;3.47;;
72261;SDS011;60173;52.112;8.648;2023-05-29T09:36:51;45.83;;;6.78;;
72261;SDS011;60173;52.112;8.648;2023-05-29T09:39:17;13.73;;;2.83;;
72261;SDS011;60173;52.112;8.648;2023-05-29T09:41:46;16.15;;;3.20;;
72261;SDS011;60173;52.112;8.648;2023-05-29T09:44:13;11.73;;;2.97;;
72261;SDS011;60173;52.112;8.648;2023-05-29T09:46:40;20.25;;;3.42;;
72261;SDS011;60173;52.112;8.648;2023-05-29T09:49:08;13.27;;;3.90;;
72261;SDS011;60173;52.112;8.648;2023-05-29T09:51:37;11.80;;;3.25;;
72261;SDS011;60173;52.112;8.648;2023-05-29T09:54:16;13.95;;;3.42;;
72261;SDS011;60173;52.112;8.648;2023-05-29T09:56:43;13.95;;;3.75;;
72261;SDS011;60173;52.112;8.648;2023-05-29T09:59:10;14.15;;;3.08;;
72261;SDS011;60173;52.112;8.648;2023-05-29T10:01:41;15.10;;;3.42;;
72261;SDS011;60173;52.112;8.648;2023-05-29T10:04:08;8.80;;;2.97;;
72261;SDS011;60173;52.112;8.648;2023-05-29T10:06:41;13.30;;;3.50;;
72261;SDS011;60173;52.112;8.648;2023-05-29T10:09:11;13.45;;;3.35;;
72261;SDS011;60173;52.112;8.648;2023-05-29T10:11:43;13.57;;;3.38;;
72261;SDS011;60173;52.112;8.648;2023-05-29T10:14:14;20.52;;;3.70;;
72261;SDS011;60173;52.112;8.648;2023-05-29T10:16:45;12.75;;;3.50;;
72261;SDS011;60173;52.112;8.648;2023-05-29T10:19:15;17.58;;;3.53;;
72261;SDS011;60173;52.112;8.648;2023-05-29T10:21:45;11.23;;;3.20;;
72261;SDS011;60173;52.112;8.648;2023-05-29T10:24:12;9.73;;;3.10;;
72261;SDS011;60173;52.112;8.648;2023-05-29T10:26:39;8.70;;;2.85;;
72261;SDS011;60173;52.112;8.648;2023-05-29T10:29:26;14.23;;;3.20;;
72261;SDS011;60173;52.112;8.648;2023-05-29T10:34:44;13.80;;;3.03;;
72261;SDS011;60173;52.112;8.648;2023-05-29T10:37:23;13.07;;;3.05;;
72261;SDS011;60173;52.112;8.648;2023-05-29T10:40:10;8.43;;;2.75;;
72261;SDS011;60173;52.112;8.648;2023-05-29T10:50:43;15.20;;;3.70;;
72261;SDS011;60173;52.112;8.648;2023-05-29T10:53:16;15.73;;;3.70;;
72261;SDS011;60173;52.112;8.648;2023-05-29T10:55:48;11.40;;;3.35;;
72261;SDS011;60173;52.112;8.648;2023-05-29T10:58:23;12.25;;;3.30;;
72261;SDS011;60173;52.112;8.648;2023-05-29T11:00:51;11.07;;;3.75;;
72261;SDS011;60173;52.112;8.648;2023-05-29T11:03:22;11.55;;;3.95;;
72261;SDS011;60173;52.112;8.648;2023-05-29T11:05:57;10.23;;;3.15;;
72261;SDS011;60173;52.112;8.648;2023-05-29T11:08:28;15.73;;;3.00;;
72261;SDS011;60173;52.112;8.648;2023-05-29T11:13:25;11.90;;;3.20;;
72261;SDS011;60173;52.112;8.648;2023-05-29T11:16:18;12.07;;;3.25;;
72261;SDS011;60173;52.112;8.648;2023-05-29T11:18:52;14.48;;;3.47;;
72261;SDS011;60173;52.112;8.648;2023-05-29T11:23:49;12.50;;;3.25;;
72261;SDS011;60173;52.112;8.648;2023-05-29T11:26:17;17.10;;;3.47;;
72261;SDS011;60173;52.112;8.648;2023-05-29T11:28:43;14.85;;;3.78;;
72261;SDS011;60173;52.112;8.648;2023-05-29T11:31:10;15.05;;;3.90;;
72261;SDS011;60173;52.112;8.648;2023-05-29T11:33:39;14.70;;;3.60;;
72261;SDS011;60173;52.112;8.648;2023-05-29T11:36:08;13.13;;;3.38;;
72261;SDS011;60173;52.112;8.648;2023-05-29T11:38:35;11.32;;;3.42;;
72261;SDS011;60173;52.112;8.648;2023-05-29T11:41:02;15.18;;;3.45;;
72261;SDS011;60173;52.112;8.648;2023-05-29T11:43:29;13.07;;;3.35;;
72261;SDS011;60173;52.112;8.648;2023-05-29T11:45:55;10.70;;;2.92;;
72261;SDS011;60173;52.112;8.648;2023-05-29T11:48:22;17.35;;;3.80;;
72261;SDS011;60173;52.112;8.648;2023-05-29T11:50:48;14.93;;;3.83;;
72261;SDS011;60173;52.112;8.648;2023-05-29T11:53:15;15.77;;;3.42;;
72261;SDS011;60173;52.112;8.648;2023-05-29T11:55:41;12.80;;;3.30;;
72261;SDS011;60173;52.112;8.648;2023-05-29T11:58:08;14.30;;;3.88;;
72261;SDS011;60173;52.112;8.648;2023-05-29T12:00:35;13.75;;;3.38;;
72261;SDS011;60173;52.112;8.648;2023-05-29T12:03:03;11.88;;;3.33;;
72261;SDS011;60173;52.112;8.648;2023-05-29T12:05:31;15.73;;;3.78;;
72261;SDS011;60173;52.112;8.648;2023-05-29T12:07:58;15.20;;;3.33;;
72261;SDS011;60173;52.112;8.648;2023-05-29T12:10:25;9.48;;;2.97;;
72261;SDS011;60173;52.112;8.648;2023-05-29T12:12:53;11.68;;;2.97;;
72261;SDS011;60173;52.112;8.648;2023-05-29T12:15:21;10.77;;;3.10;;
72261;SDS011;60173;52.112;8.648;2023-05-29T12:17:48;12.10;;;3.90;;
72261;SDS011;60173;52.112;8.648;2023-05-29T12:20:16;10.07;;;3.40;;
72261;SDS011;60173;52.112;8.648;2023-05-29T12:22:44;14.85;;;3.30;;
72261;SDS011;60173;52.112;8.648;2023-05-29T12:25:12;14.70;;;3.72;;
72261;SDS011;60173;52.112;8.648;2023-05-29T12:27:41;10.55;;;3.20;;
72261;SDS011;60173;52.112;8.648;2023-05-29T12:32:58;12.75;;;3.15;;
72261;SDS011;60173;52.112;8.648;2023-05-29T12:35:26;8.00;;;2.90;;
72261;SDS011;60173;52.112;8.648;2023-05-29T12:37:57;11.30;;;3.50;;
72261;SDS011;60173;52.112;8.648;2023-05-29T12:40:28;12.77;;;3.13;;
72261;SDS011;60173;52.112;8.648;2023-05-29T12:43:02;10.82;;;3.05;;
72261;SDS011;60173;52.112;8.648;2023-05-29T12:45:33;12.88;;;3.42;;
72261;SDS011;60173;52.112;8.648;2023-05-29T12:48:01;9.45;;;2.70;;
72261;SDS011;60173;52.112;8.648;2023-05-29T12:50:29;12.93;;;3.47;;
72261;SDS011;60173;52.112;8.648;2023-05-29T12:53:04;11.50;;;3.65;;
72261;SDS011;60173;52.112;8.648;2023-05-29T12:58:02;17.25;;;3.95;;
72261;SDS011;60173;52.112;8.648;2023-05-29T13:00:28;13.15;;;3.72;;
72261;SDS011;60173;52.112;8.648;2023-05-29T13:02:55;10.43;;;3.15;;
72261;SDS011;60173;52.112;8.648;2023-05-29T13:05:22;11.93;;;3.10;;
72261;SDS011;60173;52.112;8.648;2023-05-29T13:07:51;12.30;;;3.10;;
72261;SDS011;60173;52.112;8.648;2023-05-29T13:10:18;14.63;;;3.65;;
72261;SDS011;60173;52.112;8.648;2023-05-29T13:12:45;14.32;;;3.72;;
72261;SDS011;60173;52.112;8.648;2023-05-29T13:15:12;12.85;;;3.55;;
72261;SDS011;60173;52.112;8.648;2023-05-29T13:17:40;10.10;;;3.40;;
72261;SDS011;60173;52.112;8.648;2023-05-29T13:20:08;12.55;;;3.42;;
72261;SDS011;60173;52.112;8.648;2023-05-29T13:22:39;11.45;;;3.45;;
72261;SDS011;60173;52.112;8.648;2023-05-29T13:25:06;14.82;;;4.20;;
72261;SDS011;60173;52.112;8.648;2023-05-29T13:27:34;12.05;;;3.22;;
72261;SDS011;60173;52.112;8.648;2023-05-29T13:30:05;14.38;;;4.05;;
72261;SDS011;60173;52.112;8.648;2023-05-29T13:32:33;14.85;;;3.95;;
72261;SDS011;60173;52.112;8.648;2023-05-29T13:35:00;10.88;;;3.20;;
72261;SDS011;60173;52.112;8.648;2023-05-29T13:37:26;9.13;;;2.78;;
72261;SDS011;60173;52.112;8.648;2023-05-29T13:39:53;12.50;;;3.40;;
72261;SDS011;60173;52.112;8.648;2023-05-29T13:42:20;13.40;;;4.05;;
72261;SDS011;60173;52.112;8.648;2023-05-29T13:44:47;12.55;;;3.30;;
72261;SDS011;60173;52.112;8.648;2023-05-29T13:47:15;10.57;;;3.75;;
72261;SDS011;60173;52.112;8.648;2023-05-29T13:49:42;14.55;;;3.65;;
72261;SDS011;60173;52.112;8.648;2023-05-29T13:52:09;8.73;;;3.13;;
72261;SDS011;60173;52.112;8.648;2023-05-29T13:54:35;13.98;;;3.38;;
72261;SDS011;60173;52.112;8.648;2023-05-29T13:57:02;10.48;;;3.03;;
72261;SDS011;60173;52.112;8.648;2023-05-29T13:59:32;8.27;;;3.15;;
72261;SDS011;60173;52.112;8.648;2023-05-29T14:02:00;9.63;;;2.70;;
72261;SDS011;60173;52.112;8.648;2023-05-29T14:04:28;10.10;;;3.15;;
72261;SDS011;60173;52.112;8.648;2023-05-29T14:06:55;14.25;;;3.03;;
72261;SDS011;60173;52.112;8.648;2023-05-29T14:09:22;10.10;;;2.83;;
72261;SDS011;60173;52.112;8.648;2023-05-29T14:11:48;15.73;;;3.28;;
72261;SDS011;60173;52.112;8.648;2023-05-29T14:14:14;13.18;;;3.22;;
72261;SDS011;60173;52.112;8.648;2023-05-29T14:16:41;11.05;;;2.85;;
72261;SDS011;60173;52.112;8.648;2023-05-29T14:19:08;9.00;;;2.90;;
72261;SDS011;60173;52.112;8.648;2023-05-29T14:21:34;11.18;;;3.17;;
72261;SDS011;60173;52.112;8.648;2023-05-29T14:24:00;10.80;;;2.92;;
72261;SDS011;60173;52.112;8.648;2023-05-29T14:26:27;12.30;;;3.30;;
72261;SDS011;60173;52.112;8.648;2023-05-29T14:28:53;13.38;;;3.35;;
72261;SDS011;60173;52.112;8.648;2023-05-29T14:31:38;12.65;;;3.33;;
72261;SDS011;60173;52.112;8.648;2023-05-29T14:34:09;12.65;;;3.63;;
72261;SDS011;60173;52.112;8.648;2023-05-29T14:36:36;11.52;;;3.05;;
72261;SDS011;60173;52.112;8.648;2023-05-29T14:39:03;14.60;;;4.22;;
72261;SDS011;60173;52.112;8.648;2023-05-29T14:41:30;12.60;;;3.45;;
72261;SDS011;60173;52.112;8.648;2023-05-29T14:43:56;11.65;;;2.97;;
72261;SDS011;60173;52.112;8.648;2023-05-29T14:46:22;12.88;;;3.05;;
72261;SDS011;60173;52.112;8.648;2023-05-29T14:48:49;14.13;;;3.88;;
72261;SDS011;60173;52.112;8.648;2023-05-29T14:51:15;16.85;;;3.40;;
72261;SDS011;60173;52.112;8.648;2023-05-29T14:53:42;13.25;;;3.50;;
72261;SDS011;60173;52.112;8.648;2023-05-29T14:56:08;10.48;;;3.22;;
72261;SDS011;60173;52.112;8.648;2023-05-29T14:58:34;15.25;;;3.55;;
72261;SDS011;60173;52.112;8.648;2023-05-29T15:01:01;9.23;;;3.25;;
72261;SDS011;60173;52.112;8.648;2023-05-29T15:03:27;11.18;;;3.08;;
72261;SDS011;60173;52.112;8.648;2023-05-29T15:05:54;14.68;;;3.67;;
72261;SDS011;60173;52.112;8.648;2023-05-29T15:08:21;9.18;;;3.17;;
72261;SDS011;60173;52.112;8.648;2023-05-29T15:10:47;15.20;;;2.85;;
72261;SDS011;60173;52.112;8.648;2023-05-29T15:13:14;14.57;;;3.90;;